sensor_id;sensor_type;location;lat;lon;timestamp;pressure;altitude;pressure_sealevel;temperature;humidity
47883;BME280;37739;50.350;7.578;2023-04-22T00:01:50;99041.78;;;11.69;76.06
47883;BME280;37739;50.350;7.578;2023-04-22T00:04:15;99037.47;;;11.68;76.32
47883;BME280;37739;50.350;7.578;2023-04-22T00:06:41;99040.03;;;11.68;76.31
47883;BME280;37739;50.350;7.578;2023-04-22T00:09:08;99034.91;;;11.68;76.27
47883;BME280;37739;50.350;7.578;2023-04-22T00:11:34;99039.09;;;11.64;76.49
47883;BME280;37739;50.350;7.578;2023-04-22T00:14:02;99041.69;;;11.64;76.56
47883;BME280;37739;50.350;7.578;2023-04-22T00:16:27;99044.19;;;11.61;76.52
47883;BME280;37739;50.350;7.578;2023-04-22T00:18:52;99045.88;;;11.59;76.77
47883;BME280;37739;50.350;7.578;2023-04-22T00:21:20;99050.13;;;11.57;76.88
47883;BME280;37739;50.350;7.578;2023-04-22T00:23:46;99045.84;;;11.57;76.92
47883;BME280;37739;50.350;7.578;2023-04-22T00:26:11;99042.41;;;11.57;76.46
47883;BME280;37739;50.350;7.578;2023-04-22T00:28:41;99040.63;;;11.54;77.16
47883;BME280;37739;50.350;7.578;2023-04-22T00:31:09;99044.94;;;11.55;77.02
47883;BME280;37739;50.350;7.578;2023-04-22T00:33:36;99050.94;;;11.56;77.32
47883;BME280;37739;50.350;7.578;2023-04-22T00:36:04;99046.66;;;11.56;76.45
47883;BME280;37739;50.350;7.578;2023-04-22T00:38:30;99045.75;;;11.53;76.94
47883;BME280;37739;50.350;7.578;2023-04-22T00:40:58;99043.19;;;11.54;76.75
47883;BME280;37739;50.350;7.578;2023-04-22T00:43:23;99050.94;;;11.56;76.42
47883;BME280;37739;50.350;7.578;2023-04-22T00:45:51;99047.56;;;11.58;76.65
47883;BME280;37739;50.350;7.578;2023-04-22T00:48:22;99051.06;;;11.61;76.58
47883;BME280;37739;50.350;7.578;2023-04-22T00:50:53;99038.13;;;11.57;76.45
47883;BME280;37739;50.350;7.578;2023-04-22T00:53:18;99046.66;;;11.55;76.87
47883;BME280;37739;50.350;7.578;2023-04-22T00:55:44;99049.22;;;11.55;76.67
47883;BME280;37739;50.350;7.578;2023-04-22T00:58:12;99046.66;;;11.55;77.13
47883;BME280;37739;50.350;7.578;2023-04-22T01:00:37;99046.66;;;11.55;77.08
47883;BME280;37739;50.350;7.578;2023-04-22T01:03:05;99043.28;;;11.57;76.69
47883;BME280;37739;50.350;7.578;2023-04-22T01:05:34;99048.41;;;11.57;76.63
47883;BME280;37739;50.350;7.578;2023-04-22T01:08:02;99051.06;;;11.61;76.68
47883;BME280;37739;50.350;7.578;2023-04-22T01:10:28;99044.97;;;11.57;77.24
47883;BME280;37739;50.350;7.578;2023-04-22T01:12:55;99043.19;;;11.53;77.57
47883;BME280;37739;50.350;7.578;2023-04-22T01:15:21;99029.38;;;11.48;77.74
47883;BME280;37739;50.350;7.578;2023-04-22T01:17:46;99035.31;;;11.45;77.91
47883;BME280;37739;50.350;7.578;2023-04-22T01:20:11;99034.44;;;11.45;78.00
47883;BME280;37739;50.350;7.578;2023-04-22T01:22:43;99035.31;;;11.45;78.16
47883;BME280;37739;50.350;7.578;2023-04-22T01:25:13;99039.56;;;11.45;78.33
47883;BME280;37739;50.350;7.578;2023-04-22T01:27:42;99027.56;;;11.44;78.54
47883;BME280;37739;50.350;7.578;2023-04-22T01:30:10;99028.41;;;11.43;78.29
47883;BME280;37739;50.350;7.578;2023-04-22T01:32:39;99023.28;;;11.44;78.35
47883;BME280;37739;50.350;7.578;2023-04-22T01:35:05;99022.47;;;11.45;78.44
47883;BME280;37739;50.350;7.578;2023-04-22T01:37:30;99036.97;;;11.43;78.65
47883;BME280;37739;50.350;7.578;2023-04-22T01:39:58;99035.16;;;11.39;78.99
47883;BME280;37739;50.350;7.578;2023-04-22T01:42:29;99028.22;;;11.35;78.63
47883;BME280;37739;50.350;7.578;2023-04-22T01:44:57;99023.94;;;11.34;78.93
47883;BME280;37739;50.350;7.578;2023-04-22T01:47:22;99020.53;;;11.35;79.13
47883;BME280;37739;50.350;7.578;2023-04-22T01:49:50;99016.16;;;11.31;79.33
47883;BME280;37739;50.350;7.578;2023-04-22T01:52:16;99019.59;;;11.30;79.33
47883;BME280;37739;50.350;7.578;2023-04-22T01:54:41;99019.47;;;11.25;79.76
47883;BME280;37739;50.350;7.578;2023-04-22T01:57:11;99022.75;;;11.19;80.02
47883;BME280;37739;50.350;7.578;2023-04-22T01:59:38;99009.00;;;11.16;80.11
47883;BME280;37739;50.350;7.578;2023-04-22T02:02:06;99017.59;;;11.18;80.26
47883;BME280;37739;50.350;7.578;2023-04-22T02:04:33;99013.34;;;11.18;80.39
47883;BME280;37739;50.350;7.578;2023-04-22T02:06:59;99014.97;;;11.15;80.21
47883;BME280;37739;50.350;7.578;2023-04-22T02:09:25;99018.34;;;11.14;80.06
47883;BME280;37739;50.350;7.578;2023-04-22T02:11:50;99014.03;;;11.11;80.30
47883;BME280;37739;50.350;7.578;2023-04-22T02:14:18;99012.28;;;11.09;80.55
47883;BME280;37739;50.350;7.578;2023-04-22T02:16:43;99012.28;;;11.09;80.52
47883;BME280;37739;50.350;7.578;2023-04-22T02:19:09;99004.56;;;11.09;80.95
47883;BME280;37739;50.350;7.578;2023-04-22T02:21:36;99005.22;;;11.00;81.37
47883;BME280;37739;50.350;7.578;2023-04-22T02:24:04;99012.84;;;10.97;81.87
47883;BME280;37739;50.350;7.578;2023-04-22T02:26:32;99013.66;;;10.94;81.88
47883;BME280;37739;50.350;7.578;2023-04-22T02:28:58;99013.59;;;10.91;81.75
47883;BME280;37739;50.350;7.578;2023-04-22T02:31:23;99008.47;;;10.93;82.13
47883;BME280;37739;50.350;7.578;2023-04-22T02:33:51;99016.16;;;10.91;81.81
47883;BME280;37739;50.350;7.578;2023-04-22T02:36:18;99012.56;;;10.85;82.16
47883;BME280;37739;50.350;7.578;2023-04-22T02:38:46;99013.38;;;10.82;82.19
47883;BME280;37739;50.350;7.578;2023-04-22T02:41:12;99005.59;;;10.79;83.18
47883;BME280;37739;50.350;7.578;2023-04-22T02:43:37;99013.28;;;10.79;82.84
47883;BME280;37739;50.350;7.578;2023-04-22T02:46:02;99013.16;;;10.73;83.64
47883;BME280;37739;50.350;7.578;2023-04-22T02:48:30;99009.75;;;10.74;83.32
47883;BME280;37739;50.350;7.578;2023-04-22T02:50:55;99010.69;;;10.76;82.86
47883;BME280;37739;50.350;7.578;2023-04-22T02:53:23;99008.13;;;10.76;82.92
47883;BME280;37739;50.350;7.578;2023-04-22T02:55:50;99009.78;;;10.75;82.67
47883;BME280;37739;50.350;7.578;2023-04-22T02:58:16;99016.63;;;10.75;83.12
47883;BME280;37739;50.350;7.578;2023-04-22T03:00:44;99008.94;;;10.75;82.95
47883;BME280;37739;50.350;7.578;2023-04-22T03:03:09;99020.84;;;10.73;82.92
47883;BME280;37739;50.350;7.578;2023-04-22T03:05:34;99013.25;;;10.77;82.54
47883;BME280;37739;50.350;7.578;2023-04-22T03:08:00;99018.50;;;10.82;83.07
47883;BME280;37739;50.350;7.578;2023-04-22T03:10:28;99013.38;;;10.82;82.88
47883;BME280;37739;50.350;7.578;2023-04-22T03:12:53;99012.56;;;10.85;82.89
47883;BME280;37739;50.350;7.578;2023-04-22T03:15:18;99010.00;;;10.85;82.92
47883;BME280;37739;50.350;7.578;2023-04-22T03:17:46;99014.28;;;10.84;83.36
47883;BME280;37739;50.350;7.578;2023-04-22T03:20:16;99018.56;;;10.85;83.41
47883;BME280;37739;50.350;7.578;2023-04-22T03:22:43;99014.31;;;10.86;83.16
47883;BME280;37739;50.350;7.578;2023-04-22T03:25:13;99018.69;;;10.90;83.09
47883;BME280;37739;50.350;7.578;2023-04-22T03:27:46;99018.72;;;10.91;82.95
47883;BME280;37739;50.350;7.578;2023-04-22T03:30:11;99024.72;;;10.92;82.85
47883;BME280;37739;50.350;7.578;2023-04-22T03:32:37;99023.88;;;10.93;83.11
47883;BME280;37739;50.350;7.578;2023-04-22T03:35:07;99025.63;;;10.94;82.76
47883;BME280;37739;50.350;7.578;2023-04-22T03:37:32;99020.44;;;10.92;82.74
47883;BME280;37739;50.350;7.578;2023-04-22T03:39:58;99014.41;;;10.90;83.32
47883;BME280;37739;50.350;7.578;2023-04-22T03:42:23;99010.94;;;10.88;83.26
47883;BME280;37739;50.350;7.578;2023-04-22T03:44:48;99006.63;;;10.87;82.96
47883;BME280;37739;50.350;7.578;2023-04-22T03:47:13;99006.63;;;10.86;82.97
47883;BME280;37739;50.350;7.578;2023-04-22T03:49:39;99008.38;;;10.88;82.86
47883;BME280;37739;50.350;7.578;2023-04-22T03:52:04;99002.34;;;10.86;82.87
47883;BME280;37739;50.350;7.578;2023-04-22T03:54:32;98993.84;;;10.89;83.08
47883;BME280;37739;50.350;7.578;2023-04-22T03:57:00;98995.63;;;10.91;82.45
47883;BME280;37739;50.350;7.578;2023-04-22T03:59:25;98999.97;;;10.94;82.51
47883;BME280;37739;50.350;7.578;2023-04-22T04:01:53;98991.41;;;10.93;82.32
47883;BME280;37739;50.350;7.578;2023-04-22T04:04:19;98991.38;;;10.92;82.06
47883;BME280;37739;50.350;7.578;2023-04-22T04:06:46;98992.31;;;10.95;82.12
47883;BME280;37739;50.350;7.578;2023-04-22T04:09:12;98991.38;;;10.92;82.42
47883;BME280;37739;50.350;7.578;2023-04-22T04:11:37;98987.09;;;10.92;81.98
47883;BME280;37739;50.350;7.578;2023-04-22T04:14:02;98992.22;;;10.92;82.24
47883;BME280;37739;50.350;7.578;2023-04-22T04:16:28;98982.81;;;10.91;82.36
47883;BME280;37739;50.350;7.578;2023-04-22T04:18:53;98983.59;;;10.89;82.34
47883;BME280;37739;50.350;7.578;2023-04-22T04:21:21;98979.22;;;10.85;82.32
47883;BME280;37739;50.350;7.578;2023-04-22T04:23:49;98977.50;;;10.85;82.36
47883;BME280;37739;50.350;7.578;2023-04-22T04:26:14;98977.47;;;10.82;82.68
47883;BME280;37739;50.350;7.578;2023-04-22T04:28:40;98964.63;;;10.82;82.92
47883;BME280;37739;50.350;7.578;2023-04-22T04:31:06;98968.00;;;10.81;83.04
47883;BME280;37739;50.350;7.578;2023-04-22T04:33:31;98967.16;;;10.80;82.83
47883;BME280;37739;50.350;7.578;2023-04-22T04:35:59;98965.41;;;10.78;83.47
47883;BME280;37739;50.350;7.578;2023-04-22T04:38:25;98963.66;;;10.77;82.76
47883;BME280;37739;50.350;7.578;2023-04-22T04:40:53;98962.66;;;10.72;83.29
47883;BME280;37739;50.350;7.578;2023-04-22T04:43:21;98954.97;;;10.72;83.37
47883;BME280;37739;50.350;7.578;2023-04-22T04:45:52;98957.44;;;10.67;83.13
47883;BME280;37739;50.350;7.578;2023-04-22T04:48:19;98956.50;;;10.64;83.58
47883;BME280;37739;50.350;7.578;2023-04-22T04:50:49;98957.31;;;10.61;83.83
47883;BME280;37739;50.350;7.578;2023-04-22T04:53:21;98960.59;;;10.55;84.22
47883;BME280;37739;50.350;7.578;2023-04-22T04:55:46;98971.72;;;10.56;83.48
47883;BME280;37739;50.350;7.578;2023-04-22T04:58:14;98972.56;;;10.56;83.87
47883;BME280;37739;50.350;7.578;2023-04-22T05:00:39;98976.84;;;10.56;84.15
47883;BME280;37739;50.350;7.578;2023-04-22T05:03:05;98982.78;;;10.53;84.38
47883;BME280;37739;50.350;7.578;2023-04-22T05:05:30;98981.81;;;10.50;84.61
47883;BME280;37739;50.350;7.578;2023-04-22T05:07:55;98986.97;;;10.50;84.67
47883;BME280;37739;50.350;7.578;2023-04-22T05:10:21;98983.53;;;10.49;84.26
47883;BME280;37739;50.350;7.578;2023-04-22T05:12:46;98992.03;;;10.48;84.64
47883;BME280;37739;50.350;7.578;2023-04-22T05:15:19;99000.63;;;10.50;84.85
47883;BME280;37739;50.350;7.578;2023-04-22T05:17:45;99001.59;;;10.54;84.25
47883;BME280;37739;50.350;7.578;2023-04-22T05:20:13;99000.78;;;10.56;84.73
47883;BME280;37739;50.350;7.578;2023-04-22T05:22:40;99012.75;;;10.56;84.64
47883;BME280;37739;50.350;7.578;2023-04-22T05:25:07;99012.69;;;10.54;85.63
47883;BME280;37739;50.350;7.578;2023-04-22T05:27:33;99017.06;;;10.57;85.52
47883;BME280;37739;50.350;7.578;2023-04-22T05:29:58;99014.59;;;10.61;85.43
47883;BME280;37739;50.350;7.578;2023-04-22T05:32:26;99012.13;;;10.65;84.96
47883;BME280;37739;50.350;7.578;2023-04-22T05:34:54;99008.75;;;10.67;85.25
47883;BME280;37739;50.350;7.578;2023-04-22T05:37:19;98999.34;;;10.68;85.46
47883;BME280;37739;50.350;7.578;2023-04-22T05:39:44;99000.25;;;10.70;85.61
47883;BME280;37739;50.350;7.578;2023-04-22T05:42:10;98989.09;;;10.68;85.18
47883;BME280;37739;50.350;7.578;2023-04-22T05:44:37;99005.47;;;10.73;84.42
47883;BME280;37739;50.350;7.578;2023-04-22T05:47:05;99001.13;;;10.70;84.78
47883;BME280;37739;50.350;7.578;2023-04-22T05:49:30;99004.56;;;10.71;85.09
47883;BME280;37739;50.350;7.578;2023-04-22T05:51:55;99001.13;;;10.70;85.36
47883;BME280;37739;50.350;7.578;2023-04-22T05:54:25;98999.47;;;10.72;84.55
47883;BME280;37739;50.350;7.578;2023-04-22T05:56:54;98987.41;;;10.70;85.27
47883;BME280;37739;50.350;7.578;2023-04-22T05:59:19;98981.38;;;10.68;85.22
47883;BME280;37739;50.350;7.578;2023-04-22T06:01:47;98992.59;;;10.71;85.25
47883;BME280;37739;50.350;7.578;2023-04-22T06:04:17;99001.19;;;10.73;85.29
47883;BME280;37739;50.350;7.578;2023-04-22T06:06:45;98997.00;;;10.77;84.86
47883;BME280;37739;50.350;7.578;2023-04-22T06:09:11;99003.97;;;10.83;84.58
47883;BME280;37739;50.350;7.578;2023-04-22T06:11:41;98999.75;;;10.85;84.91
47883;BME280;37739;50.350;7.578;2023-04-22T06:14:07;98989.56;;;10.88;85.00
47883;BME280;37739;50.350;7.578;2023-04-22T06:16:34;98990.59;;;10.96;84.64
47883;BME280;37739;50.350;7.578;2023-04-22T06:19:02;98989.88;;;11.02;84.41
47883;BME280;37739;50.350;7.578;2023-04-22T06:21:31;98992.59;;;11.09;84.26
47883;BME280;37739;50.350;7.578;2023-04-22T06:23:59;98976.50;;;11.16;83.75
47883;BME280;37739;50.350;7.578;2023-04-22T06:26:25;98985.19;;;11.23;83.50
47883;BME280;37739;50.350;7.578;2023-04-22T06:28:54;98980.22;;;11.31;83.16
47883;BME280;37739;50.350;7.578;2023-04-22T06:31:19;98986.31;;;11.36;83.35
47883;BME280;37739;50.350;7.578;2023-04-22T06:33:45;98985.53;;;11.40;82.62
47883;BME280;37739;50.350;7.578;2023-04-22T06:36:11;98990.81;;;11.46;82.33
47883;BME280;37739;50.350;7.578;2023-04-22T06:38:37;98979.75;;;11.50;82.56
47883;BME280;37739;50.350;7.578;2023-04-22T06:41:04;98979.13;;;11.61;82.33
47883;BME280;37739;50.350;7.578;2023-04-22T06:43:33;98982.72;;;11.70;82.03
47883;BME280;37739;50.350;7.578;2023-04-22T06:46:00;98986.34;;;11.82;81.73
47883;BME280;37739;50.350;7.578;2023-04-22T06:48:28;98987.41;;;11.90;81.79
47883;BME280;37739;50.350;7.578;2023-04-22T06:50:53;98992.69;;;11.97;82.10
47883;BME280;37739;50.350;7.578;2023-04-22T06:53:21;98996.34;;;12.10;81.36
47883;BME280;37739;50.350;7.578;2023-04-22T06:55:49;98989.59;;;12.17;80.95
47883;BME280;37739;50.350;7.578;2023-04-22T06:58:17;98993.03;;;12.17;80.93
47883;BME280;37739;50.350;7.578;2023-04-22T07:00:45;98991.44;;;12.23;80.43
47883;BME280;37739;50.350;7.578;2023-04-22T07:03:10;98986.44;;;12.32;80.61
47883;BME280;37739;50.350;7.578;2023-04-22T07:05:38;98984.00;;;12.41;80.60
47883;BME280;37739;50.350;7.578;2023-04-22T07:08:03;98984.25;;;12.55;79.74
47883;BME280;37739;50.350;7.578;2023-04-22T07:10:28;98991.25;;;12.65;79.32
47883;BME280;37739;50.350;7.578;2023-04-22T07:12:56;98982.84;;;12.75;78.88
47883;BME280;37739;50.350;7.578;2023-04-22T07:15:21;98992.50;;;12.90;78.42
47883;BME280;37739;50.350;7.578;2023-04-22T07:17:46;98980.59;;;12.99;77.18
47883;BME280;37739;50.350;7.578;2023-04-22T07:20:12;98981.59;;;13.07;76.85
47883;BME280;37739;50.350;7.578;2023-04-22T07:22:39;98980.03;;;13.20;76.11
47883;BME280;37739;50.350;7.578;2023-04-22T07:25:07;98984.50;;;13.30;75.30
47883;BME280;37739;50.350;7.578;2023-04-22T07:27:36;98985.47;;;13.40;74.85
47883;BME280;37739;50.350;7.578;2023-04-22T07:30:02;98981.25;;;13.46;74.38
47883;BME280;37739;50.350;7.578;2023-04-22T07:32:27;98983.09;;;13.55;74.20
47883;BME280;37739;50.350;7.578;2023-04-22T07:34:53;98978.03;;;13.66;73.74
47883;BME280;37739;50.350;7.578;2023-04-22T07:37:20;98968.69;;;13.74;72.89
47883;BME280;37739;50.350;7.578;2023-04-22T07:39:48;98974.81;;;13.82;72.50
47883;BME280;37739;50.350;7.578;2023-04-22T07:42:13;98971.47;;;13.92;71.77
47883;BME280;37739;50.350;7.578;2023-04-22T07:44:41;98973.28;;;14.03;71.64
47883;BME280;37739;50.350;7.578;2023-04-22T07:47:07;98970.81;;;14.15;70.98
47883;BME280;37739;50.350;7.578;2023-04-22T07:49:33;98968.31;;;14.26;70.66
47883;BME280;37739;50.350;7.578;2023-04-22T07:51:58;98964.94;;;14.33;70.27
47883;BME280;37739;50.350;7.578;2023-04-22T07:54:26;98967.66;;;14.45;69.88
47883;BME280;37739;50.350;7.578;2023-04-22T07:56:53;98966.88;;;14.56;69.01
47883;BME280;37739;50.350;7.578;2023-04-22T07:59:23;98966.97;;;14.66;69.00
47883;BME280;37739;50.350;7.578;2023-04-22T08:01:49;98973.06;;;14.75;68.17
47883;BME280;37739;50.350;7.578;2023-04-22T08:04:17;98972.28;;;14.86;68.04
47883;BME280;37739;50.350;7.578;2023-04-22T08:06:43;98955.97;;;14.98;67.73
47883;BME280;37739;50.350;7.578;2023-04-22T08:09:10;98959.50;;;15.09;67.38
47883;BME280;37739;50.350;7.578;2023-04-22T08:11:35;98945.75;;;15.17;67.14
47883;BME280;37739;50.350;7.578;2023-04-22T08:14:08;98948.38;;;15.24;66.47
47883;BME280;37739;50.350;7.578;2023-04-22T08:16:33;98951.81;;;15.28;65.63
47883;BME280;37739;50.350;7.578;2023-04-22T08:19:04;98955.31;;;15.36;65.69
47883;BME280;37739;50.350;7.578;2023-04-22T08:21:29;98956.19;;;15.41;65.06
47883;BME280;37739;50.350;7.578;2023-04-22T08:24:00;98949.34;;;15.56;64.92
47883;BME280;37739;50.350;7.578;2023-04-22T08:26:25;98945.94;;;15.69;64.66
47883;BME280;37739;50.350;7.578;2023-04-22T08:28:55;98947.72;;;15.79;64.06
47883;BME280;37739;50.350;7.578;2023-04-22T08:31:20;98941.72;;;15.93;64.34
47883;BME280;37739;50.350;7.578;2023-04-22T08:33:48;98945.19;;;16.04;63.47
47883;BME280;37739;50.350;7.578;2023-04-22T08:36:15;98934.84;;;16.18;63.21
47883;BME280;37739;50.350;7.578;2023-04-22T08:38:42;98940.88;;;16.31;61.91
47883;BME280;37739;50.350;7.578;2023-04-22T08:41:11;98935.72;;;16.47;61.97
47883;BME280;37739;50.350;7.578;2023-04-22T08:43:36;98927.91;;;16.66;61.52
47883;BME280;37739;50.350;7.578;2023-04-22T08:46:02;98931.34;;;16.85;60.24
47883;BME280;37739;50.350;7.578;2023-04-22T08:48:30;98924.44;;;16.98;60.56
47883;BME280;37739;50.350;7.578;2023-04-22T08:50:56;98924.34;;;17.18;60.75
47883;BME280;37739;50.350;7.578;2023-04-22T08:53:24;98919.97;;;17.34;59.67
47883;BME280;37739;50.350;7.578;2023-04-22T08:55:52;98925.13;;;17.37;59.17
47883;BME280;37739;50.350;7.578;2023-04-22T08:58:20;98921.69;;;17.30;58.90
47883;BME280;37739;50.350;7.578;2023-04-22T09:00:49;98919.13;;;17.29;57.47
47883;BME280;37739;50.350;7.578;2023-04-22T09:03:15;98925.09;;;17.41;58.62
47883;BME280;37739;50.350;7.578;2023-04-22T09:05:44;98919.00;;;17.56;58.24
47883;BME280;37739;50.350;7.578;2023-04-22T09:08:10;98907.63;;;17.79;57.30
47883;BME280;37739;50.350;7.578;2023-04-22T09:10:39;98903.28;;;17.87;57.21
47883;BME280;37739;50.350;7.578;2023-04-22T09:13:07;98903.22;;;17.93;54.90
47883;BME280;37739;50.350;7.578;2023-04-22T09:15:34;98890.13;;;18.09;56.26
47883;BME280;37739;50.350;7.578;2023-04-22T09:18:01;98892.59;;;18.25;55.83
47883;BME280;37739;50.350;7.578;2023-04-22T09:20:28;98896.75;;;18.43;55.08
47883;BME280;37739;50.350;7.578;2023-04-22T09:23:01;98882.81;;;18.55;51.98
47883;BME280;37739;50.350;7.578;2023-04-22T09:25:28;98886.28;;;18.53;52.87
47883;BME280;37739;50.350;7.578;2023-04-22T09:27:58;98878.38;;;18.63;52.11
47883;BME280;37739;50.350;7.578;2023-04-22T09:30:31;98876.59;;;18.69;51.01
47883;BME280;37739;50.350;7.578;2023-04-22T09:32:59;98884.41;;;18.67;51.27
47883;BME280;37739;50.350;7.578;2023-04-22T09:35:42;98885.19;;;18.74;50.03
47883;BME280;37739;50.350;7.578;2023-04-22T09:38:10;98884.28;;;18.81;51.59
47883;BME280;37739;50.350;7.578;2023-04-22T09:40:41;98893.78;;;18.83;49.18
47883;BME280;37739;50.350;7.578;2023-04-22T09:43:10;98886.03;;;18.80;49.57
47883;BME280;37739;50.350;7.578;2023-04-22T09:45:42;98886.88;;;18.79;48.66
47883;BME280;37739;50.350;7.578;2023-04-22T09:48:09;98886.00;;;18.82;49.10
47883;BME280;37739;50.350;7.578;2023-04-22T09:50:40;98882.56;;;18.80;49.55
47883;BME280;37739;50.350;7.578;2023-04-22T09:53:10;98885.16;;;18.78;48.75
47883;BME280;37739;50.350;7.578;2023-04-22T09:55:44;98882.66;;;18.71;46.44
47883;BME280;37739;50.350;7.578;2023-04-22T09:58:12;98878.34;;;18.67;47.05
47883;BME280;37739;50.350;7.578;2023-04-22T10:00:43;98880.94;;;18.67;45.70
47883;BME280;37739;50.350;7.578;2023-04-22T10:03:09;98880.09;;;18.66;46.46
47883;BME280;37739;50.350;7.578;2023-04-22T10:05:35;98870.50;;;18.71;46.08
47883;BME280;37739;50.350;7.578;2023-04-22T10:08:06;98883.44;;;18.80;46.82
47883;BME280;37739;50.350;7.578;2023-04-22T10:10:35;98879.97;;;18.78;45.88
47883;BME280;37739;50.350;7.578;2023-04-22T10:13:04;98878.22;;;18.79;46.09
47883;BME280;37739;50.350;7.578;2023-04-22T10:15:38;98880.84;;;18.80;43.68
47883;BME280;37739;50.350;7.578;2023-04-22T10:18:06;98880.63;;;18.99;44.27
47883;BME280;37739;50.350;7.578;2023-04-22T10:20:39;98876.69;;;19.35;44.34
47883;BME280;37739;50.350;7.578;2023-04-22T10:23:11;98873.03;;;19.52;43.26
47883;BME280;37739;50.350;7.578;2023-04-22T10:25:39;98872.84;;;19.62;42.52
47883;BME280;37739;50.350;7.578;2023-04-22T10:28:09;98871.78;;;19.77;43.01
47883;BME280;37739;50.350;7.578;2023-04-22T10:30:38;98868.09;;;19.92;42.00
47883;BME280;37739;50.350;7.578;2023-04-22T10:38:38;98884.22;;;20.14;42.69
47883;BME280;37739;50.350;7.578;2023-04-22T10:41:03;98874.84;;;20.06;43.35
47883;BME280;37739;50.350;7.578;2023-04-22T10:43:59;98880.97;;;20.51;41.23
47883;BME280;37739;50.350;7.578;2023-04-22T10:49:13;98874.41;;;21.24;42.05
47883;BME280;37739;50.350;7.578;2023-04-22T10:51:48;98871.03;;;21.59;41.78
47883;BME280;37739;50.350;7.578;2023-04-22T10:59:27;98866.25;;;22.14;40.54
47883;BME280;37739;50.350;7.578;2023-04-22T11:02:02;98858.19;;;22.23;40.13
47883;BME280;37739;50.350;7.578;2023-04-22T11:04:27;98862.66;;;22.18;40.36
47883;BME280;37739;50.350;7.578;2023-04-22T11:10:01;98850.44;;;21.84;39.15
47883;BME280;37739;50.350;7.578;2023-04-22T11:15:14;98856.41;;;21.89;40.09
47883;BME280;37739;50.350;7.578;2023-04-22T11:17:45;98857.00;;;22.01;39.50
47883;BME280;37739;50.350;7.578;2023-04-22T11:20:14;98863.56;;;22.17;39.88
47883;BME280;37739;50.350;7.578;2023-04-22T11:22:48;98852.41;;;22.46;39.45
47883;BME280;37739;50.350;7.578;2023-04-22T11:25:19;98866.56;;;22.70;39.68
47883;BME280;37739;50.350;7.578;2023-04-22T11:27:48;98860.25;;;23.10;38.66
47883;BME280;37739;50.350;7.578;2023-04-22T11:30:14;98859.63;;;23.30;37.14
47883;BME280;37739;50.350;7.578;2023-04-22T11:32:43;98859.41;;;23.38;37.00
47883;BME280;37739;50.350;7.578;2023-04-22T11:35:11;98850.72;;;23.38;37.60
47883;BME280;37739;50.350;7.578;2023-04-22T11:37:41;98858.94;;;23.25;36.60
47883;BME280;37739;50.350;7.578;2023-04-22T11:40:09;98854.16;;;23.10;36.76
47883;BME280;37739;50.350;7.578;2023-04-22T11:42:37;98841.75;;;23.17;36.31
47883;BME280;37739;50.350;7.578;2023-04-22T11:45:06;98846.59;;;23.57;37.46
47883;BME280;37739;50.350;7.578;2023-04-22T11:47:33;98843.44;;;23.76;36.48
47883;BME280;37739;50.350;7.578;2023-04-22T11:50:05;98847.09;;;23.98;35.50
47883;BME280;37739;50.350;7.578;2023-04-22T11:53:12;98843.69;;;23.96;34.63
47883;BME280;37739;50.350;7.578;2023-04-22T11:55:39;98850.00;;;24.16;35.97
47883;BME280;37739;50.350;7.578;2023-04-22T12:00:48;98843.44;;;24.29;34.82
47883;BME280;37739;50.350;7.578;2023-04-22T12:03:25;98838.84;;;24.36;34.79
47883;BME280;37739;50.350;7.578;2023-04-22T12:06:02;98843.19;;;24.37;33.80
47883;BME280;37739;50.350;7.578;2023-04-22T12:08:36;98843.25;;;24.60;34.64
47883;BME280;37739;50.350;7.578;2023-04-22T12:11:06;98842.41;;;24.60;35.03
47883;BME280;37739;50.350;7.578;2023-04-22T12:13:40;98832.63;;;24.88;34.23
47883;BME280;37739;50.350;7.578;2023-04-22T12:16:13;98837.31;;;24.55;34.69
47883;BME280;37739;50.350;7.578;2023-04-22T12:18:48;98839.31;;;24.22;35.69
47883;BME280;37739;50.350;7.578;2023-04-22T12:21:16;98844.78;;;23.89;36.35
47883;BME280;37739;50.350;7.578;2023-04-22T12:23:49;98843.94;;;23.59;36.31
47883;BME280;37739;50.350;7.578;2023-04-22T12:26:17;98850.66;;;23.39;37.30
47883;BME280;37739;50.350;7.578;2023-04-22T12:28:46;98853.16;;;23.14;37.41
47883;BME280;37739;50.350;7.578;2023-04-22T12:31:14;98851.19;;;22.91;36.98
47883;BME280;37739;50.350;7.578;2023-04-22T12:33:46;98851.13;;;22.61;37.64
47883;BME280;37739;50.350;7.578;2023-04-22T12:36:12;98849.91;;;22.42;38.77
47883;BME280;37739;50.350;7.578;2023-04-22T12:38:37;98848.75;;;22.18;38.01
47883;BME280;37739;50.350;7.578;2023-04-22T12:41:06;98855.19;;;22.04;39.11
47883;BME280;37739;50.350;7.578;2023-04-22T12:43:32;98864.78;;;22.04;39.34
47883;BME280;37739;50.350;7.578;2023-04-22T12:46:05;98853.50;;;22.02;39.62
47883;BME280;37739;50.350;7.578;2023-04-22T12:48:33;98859.84;;;21.91;40.59
47883;BME280;37739;50.350;7.578;2023-04-22T12:51:01;98858.41;;;21.78;41.48
47883;BME280;37739;50.350;7.578;2023-04-22T12:53:31;98867.53;;;21.60;41.94
47883;BME280;37739;50.350;7.578;2023-04-22T12:55:57;98859.03;;;21.52;42.22
47883;BME280;37739;50.350;7.578;2023-04-22T12:58:23;98866.97;;;21.46;42.51
47883;BME280;37739;50.350;7.578;2023-04-22T13:00:50;98866.03;;;21.50;43.01
47883;BME280;37739;50.350;7.578;2023-04-22T13:03:18;98868.72;;;21.47;43.02
47883;BME280;37739;50.350;7.578;2023-04-22T13:05:44;98875.06;;;21.32;42.97
47883;BME280;37739;50.350;7.578;2023-04-22T13:08:12;98875.81;;;21.38;43.04
47883;BME280;37739;50.350;7.578;2023-04-22T13:10:39;98869.47;;;21.52;43.05
47883;BME280;37739;50.350;7.578;2023-04-22T13:13:07;98873.72;;;21.56;42.67
47883;BME280;37739;50.350;7.578;2023-04-22T13:15:35;98868.78;;;21.42;43.05
47883;BME280;37739;50.350;7.578;2023-04-22T13:18:05;98875.28;;;21.23;43.56
47883;BME280;37739;50.350;7.578;2023-04-22T13:20:30;98875.50;;;21.12;44.01
47883;BME280;37739;50.350;7.578;2023-04-22T13:22:58;98887.66;;;21.13;43.79
47883;BME280;37739;50.350;7.578;2023-04-22T13:25:23;98886.97;;;21.03;44.18